createdAt,value
2022-12-18T00:01:51.205Z,-5.32
2022-12-18T00:04:23.782Z,-5.27
2022-12-18T00:06:52.107Z,-5.23
2022-12-18T00:09:19.987Z,-5.25
2022-12-18T00:11:47.864Z,-5.32
2022-12-18T00:14:16.023Z,-5.21
2022-12-18T00:16:47.627Z,-5.23
2022-12-18T00:19:16.676Z,-5.19
2022-12-18T00:21:45.595Z,-5.22
2022-12-18T00:24:13.636Z,-5.28
2022-12-18T00:26:41.628Z,-5.68
2022-12-18T00:29:12.547Z,-5.31
2022-12-18T00:31:40.510Z,-5.39
2022-12-18T00:34:12.164Z,-5.35
2022-12-18T00:36:39.968Z,-5.39
2022-12-18T00:39:08.329Z,-5.41
2022-12-18T00:41:53.689Z,-5.37
2022-12-18T00:44:22.061Z,-5.45
2022-12-18T00:46:50.317Z,-5.40
2022-12-18T00:49:21.023Z,-5.86
2022-12-18T00:51:48.975Z,-5.43
2022-12-18T00:54:17.737Z,-5.42
2022-12-18T00:56:49.085Z,-5.50
2022-12-18T00:59:17.995Z,-5.49
2022-12-18T01:01:46.219Z,-5.50
2022-12-18T01:04:14.181Z,-5.52
2022-12-18T01:06:43.523Z,-5.52
2022-12-18T01:09:12.444Z,-5.53
2022-12-18T01:11:40.240Z,-5.55
2022-12-18T01:14:08.457Z,-5.55
2022-12-18T01:16:36.403Z,-5.51
2022-12-18T01:19:04.299Z,-5.64
2022-12-18T01:21:32.083Z,-5.54
2022-12-18T01:24:01.423Z,-5.50
2022-12-18T01:26:30.556Z,-5.48
2022-12-18T01:28:59.508Z,-5.48
2022-12-18T01:31:29.405Z,-5.86
2022-12-18T01:33:57.801Z,-5.46
2022-12-18T01:36:28.093Z,-5.46
2022-12-18T01:38:55.922Z,-5.46
2022-12-18T01:41:28.019Z,-5.48
2022-12-18T01:43:58.201Z,-5.45
2022-12-18T01:46:27.681Z,-5.78
2022-12-18T01:48:59.310Z,-5.42
2022-12-18T01:51:28.919Z,-5.44
2022-12-18T01:53:59.471Z,-5.40
2022-12-18T01:56:29.253Z,-5.48
2022-12-18T01:59:02.311Z,-5.45
2022-12-18T02:01:32.335Z,-5.43
2022-12-18T02:04:22.124Z,-5.41
2022-12-18T02:06:54.355Z,-5.41
2022-12-18T02:09:27.431Z,-5.39
2022-12-18T02:12:07.171Z,-5.40
2022-12-18T02:14:40.813Z,-5.43
2022-12-18T02:17:13.628Z,-5.43
2022-12-18T02:20:06.320Z,-5.49
2022-12-18T02:22:45.693Z,-5.51
2022-12-18T02:25:30.994Z,-5.42
2022-12-18T02:28:03.643Z,-5.44
2022-12-18T02:30:35.855Z,-5.46
2022-12-18T02:33:06.492Z,-5.42
2022-12-18T02:35:36.268Z,-5.47
2022-12-18T02:38:06.003Z,-5.52
2022-12-18T02:40:34.336Z,-5.50
2022-12-18T02:43:10.097Z,-5.70
2022-12-18T02:45:37.869Z,-5.53
2022-12-18T02:48:05.965Z,-5.64
2022-12-18T02:50:40.186Z,-5.58
2022-12-18T02:53:17.584Z,-5.58
2022-12-18T02:55:58.622Z,-5.63
2022-12-18T02:58:36.401Z,-5.63
2022-12-18T03:01:11.312Z,-5.61
2022-12-18T03:03:43.999Z,-5.62
2022-12-18T03:06:16.264Z,-5.67
2022-12-18T03:08:49.232Z,-5.95
2022-12-18T03:11:37.630Z,-5.68
2022-12-18T03:14:09.130Z,-5.68
2022-12-18T03:16:38.720Z,-5.69
2022-12-18T03:19:11.108Z,-5.71
2022-12-18T03:21:44.921Z,-5.64
2022-12-18T03:24:13.715Z,-5.64
2022-12-18T03:26:46.604Z,-5.77
2022-12-18T03:29:20.608Z,-5.67
2022-12-18T03:31:54.406Z,-5.63
2022-12-18T03:34:25.706Z,-5.63
2022-12-18T03:36:53.483Z,-5.69
2022-12-18T03:39:21.829Z,-5.72
2022-12-18T03:41:55.138Z,-5.64
2022-12-18T03:44:31.926Z,-5.67
2022-12-18T03:47:05.489Z,-5.70
2022-12-18T03:49:40.484Z,-5.68
2022-12-18T03:52:13.251Z,-5.73
2022-12-18T03:54:42.902Z,-6.09
2022-12-18T03:57:15.904Z,-5.81
2022-12-18T03:59:47.349Z,-5.78
2022-12-18T04:02:17.933Z,-5.77
2022-12-18T04:04:48.954Z,-5.88
2022-12-18T04:07:18.207Z,-5.87
2022-12-18T04:09:47.956Z,-5.84
2022-12-18T04:12:15.791Z,-5.87
2022-12-18T04:14:44.967Z,-5.86
2022-12-18T04:17:13.709Z,-5.89
2022-12-18T04:19:41.439Z,-6.60
2022-12-18T04:22:11.528Z,-5.92
2022-12-18T04:24:39.460Z,-5.88
2022-12-18T04:27:07.677Z,-5.93
2022-12-18T04:29:35.540Z,-5.91
2022-12-18T04:32:04.981Z,-5.98
2022-12-18T04:34:32.875Z,-5.93
2022-12-18T04:37:00.684Z,-5.95
2022-12-18T04:39:28.498Z,-5.98
2022-12-18T04:41:56.301Z,-6.03
2022-12-18T04:44:24.326Z,-6.15
2022-12-18T04:46:52.099Z,-6.10
2022-12-18T04:49:21.500Z,-6.11
2022-12-18T04:51:49.244Z,-6.09
2022-12-18T04:54:17.119Z,-6.20
2022-12-18T04:56:44.872Z,-6.14
2022-12-18T04:59:12.731Z,-6.18
2022-12-18T05:01:40.932Z,-6.17
2022-12-18T05:04:08.899Z,-6.18
2022-12-18T05:06:38.130Z,-6.26
2022-12-18T05:09:06.054Z,-6.31
2022-12-18T05:11:33.936Z,-6.31
2022-12-18T05:14:01.765Z,-6.37
2022-12-18T05:16:29.562Z,-6.32
2022-12-18T05:18:57.573Z,-6.39
2022-12-18T05:21:25.374Z,-6.40
2022-12-18T05:23:54.544Z,-6.58
2022-12-18T05:26:22.307Z,-6.38
2022-12-18T05:28:50.065Z,-6.53
2022-12-18T05:31:18.079Z,-6.53
2022-12-18T05:33:46.029Z,-6.35
2022-12-18T05:36:13.901Z,-6.29
2022-12-18T05:38:42.764Z,-6.44
2022-12-18T05:41:12.151Z,-6.30
2022-12-18T05:43:42.099Z,-6.42
2022-12-18T05:46:13.967Z,-6.31
2022-12-18T05:48:42.102Z,-6.32
2022-12-18T05:51:11.668Z,-6.52
2022-12-18T05:53:40.675Z,-6.27
2022-12-18T05:56:15.575Z,-6.26
2022-12-18T05:58:43.648Z,-6.28
2022-12-18T06:01:14.194Z,-6.32
2022-12-18T06:03:42.561Z,-6.30
2022-12-18T06:06:18.678Z,-6.28
2022-12-18T06:08:46.958Z,-6.63
2022-12-18T06:11:19.350Z,-6.33
2022-12-18T06:13:47.399Z,-6.26
2022-12-18T06:16:15.248Z,-6.47
2022-12-18T06:18:43.098Z,-6.31
2022-12-18T06:21:11.051Z,-6.40
2022-12-18T06:23:39.342Z,-6.45
2022-12-18T06:26:08.478Z,-6.27
2022-12-18T06:28:38.045Z,-6.38
2022-12-18T06:31:06.917Z,-6.25
2022-12-18T06:33:35.448Z,-6.32
2022-12-18T06:36:04.760Z,-6.36
2022-12-18T06:38:35.476Z,-6.36
2022-12-18T06:41:07.727Z,-6.39
2022-12-18T06:43:37.659Z,-6.34
2022-12-18T06:46:07.152Z,-6.37
2022-12-18T06:48:35.429Z,-6.80
2022-12-18T06:51:03.818Z,-6.46
2022-12-18T06:53:31.685Z,-6.57
2022-12-18T06:56:09.180Z,-6.27
2022-12-18T06:58:39.328Z,-6.53
2022-12-18T07:01:09.391Z,-6.46
2022-12-18T07:03:37.707Z,-6.40
2022-12-18T07:06:06.242Z,-6.49
2022-12-18T07:08:34.676Z,-6.42
2022-12-18T07:11:05.583Z,-6.59
2022-12-18T07:13:33.359Z,-6.47
2022-12-18T07:16:14.407Z,-6.42
2022-12-18T07:18:45.466Z,-6.46
2022-12-18T07:21:16.992Z,-6.68
2022-12-18T07:23:45.788Z,-6.40
2022-12-18T07:26:14.904Z,-6.49
2022-12-18T07:28:44.763Z,-6.57
2022-12-18T07:31:16.603Z,-6.55
2022-12-18T07:33:45.312Z,-6.73
2022-12-18T07:36:13.785Z,-6.37
2022-12-18T07:38:41.784Z,-6.43
2022-12-18T07:41:11.281Z,-6.34
2022-12-18T07:43:40.391Z,-6.49
2022-12-18T07:46:11.760Z,-6.32
2022-12-18T07:48:43.668Z,-6.34
2022-12-18T07:51:14.322Z,-6.39
2022-12-18T07:53:43.641Z,-6.61
2022-12-18T07:56:31.132Z,-6.28
2022-12-18T07:58:59.912Z,-6.22
2022-12-18T08:01:27.970Z,-6.40
2022-12-18T08:03:57.418Z,-6.17
2022-12-18T08:06:25.432Z,-6.09
2022-12-18T08:08:54.677Z,-6.04
2022-12-18T08:11:23.006Z,-5.94
2022-12-18T08:13:50.850Z,-5.87
2022-12-18T08:16:19.542Z,-5.78
2022-12-18T08:18:47.968Z,-5.34
2022-12-18T08:21:19.446Z,-4.90
2022-12-18T08:23:51.089Z,-4.80
2022-12-18T08:26:19.840Z,-5.07
2022-12-18T08:28:48.932Z,-4.42
2022-12-18T08:31:17.965Z,-4.61
2022-12-18T08:33:45.902Z,-4.38
2022-12-18T08:36:14.808Z,-4.48
2022-12-18T08:38:43.990Z,-4.61
2022-12-18T08:41:13.962Z,-4.32
2022-12-18T08:43:59.976Z,-3.85
2022-12-18T08:46:29.651Z,-3.41
2022-12-18T08:48:57.685Z,-2.57
2022-12-18T08:51:25.457Z,-2.23
2022-12-18T08:53:54.781Z,-2.04
2022-12-18T08:56:22.563Z,-1.01
2022-12-18T08:58:53.557Z,-0.87
2022-12-18T09:01:22.355Z,-0.99
2022-12-18T09:03:50.373Z,-0.19
2022-12-18T09:06:19.720Z,0.28
2022-12-18T09:08:47.799Z,1.29
2022-12-18T09:11:21.400Z,2.33
2022-12-18T09:13:49.177Z,1.91
2022-12-18T09:16:17.427Z,3.28
2022-12-18T09:18:45.310Z,3.22
2022-12-18T09:21:15.204Z,3.43
2022-12-18T09:23:43.351Z,3.42
2022-12-18T09:26:11.664Z,4.05
2022-12-18T09:28:41.134Z,3.57
2022-12-18T09:31:10.288Z,4.06
2022-12-18T09:33:38.104Z,2.77
2022-12-18T09:36:08.842Z,3.20
2022-12-18T09:38:37.654Z,4.59
2022-12-18T09:41:09.100Z,5.80
2022-12-18T09:43:43.254Z,3.45
2022-12-18T09:46:26.538Z,3.12
2022-12-18T09:48:56.875Z,2.37
2022-12-18T09:51:29.654Z,3.47
2022-12-18T09:54:00.563Z,4.09
2022-12-18T09:56:31.432Z,4.46
2022-12-18T09:59:02.784Z,2.53
2022-12-18T10:01:41.360Z,2.46
2022-12-18T10:04:12.061Z,4.43
2022-12-18T10:06:45.243Z,6.35
2022-12-18T10:09:22.331Z,3.88
2022-12-18T10:12:02.593Z,4.30
2022-12-18T10:14:38.588Z,2.37
2022-12-18T10:17:19.491Z,1.71
2022-12-18T10:19:52.681Z,1.90
2022-12-18T10:22:31.863Z,1.74
2022-12-18T10:25:06.315Z,0.75
2022-12-18T10:27:34.917Z,1.05
2022-12-18T10:30:15.510Z,0.78
2022-12-18T10:32:43.592Z,0.21
2022-12-18T10:35:20.100Z,0.33
2022-12-18T10:38:22.553Z,0.44
2022-12-18T10:40:53.378Z,0.08
2022-12-18T10:43:26.664Z,0.12
2022-12-18T10:46:06.846Z,-0.17
2022-12-18T10:48:38.401Z,0.14
2022-12-18T10:51:12.386Z,-0.55
2022-12-18T10:53:43.612Z,-0.89
2022-12-18T10:56:11.747Z,-0.85
2022-12-18T10:58:41.375Z,-0.81
2022-12-18T11:01:13.870Z,-0.72
2022-12-18T11:03:43.561Z,-0.82
2022-12-18T11:06:13.896Z,-0.15
2022-12-18T11:08:44.082Z,-0.10
2022-12-18T11:11:21.304Z,0.12
2022-12-18T11:14:00.973Z,0.17
2022-12-18T11:16:31.884Z,-0.41
2022-12-18T11:19:17.088Z,0.10
2022-12-18T11:21:45.121Z,-0.17
2022-12-18T11:24:23.189Z,-0.22
2022-12-18T11:26:54.966Z,-0.24
2022-12-18T11:29:33.518Z,-0.46
2022-12-18T11:32:38.130Z,-0.72
2022-12-18T11:35:15.787Z,-1.73
2022-12-18T11:37:48.501Z,-1.38
2022-12-18T11:40:20.379Z,-1.20
2022-12-18T11:42:53.376Z,-1.65
2022-12-18T11:45:28.646Z,-1.31
2022-12-18T11:48:03.477Z,-1.62
2022-12-18T11:50:40.318Z,-1.75
2022-12-18T11:53:13.323Z,-1.47
2022-12-18T11:55:46.693Z,-1.77
2022-12-18T11:58:22.619Z,-1.90
2022-12-18T12:01:08.514Z,-1.42
2022-12-18T12:04:01.843Z,-1.21
2022-12-18T12:06:41.915Z,-0.72
2022-12-18T12:09:22.273Z,-0.67
2022-12-18T12:12:05.146Z,-0.76
2022-12-18T12:14:51.561Z,-1.12
2022-12-18T12:17:30.603Z,-1.24
2022-12-18T12:20:09.754Z,-1.33
2022-12-18T12:22:47.448Z,-1.20
2022-12-18T12:25:27.977Z,-1.45
2022-12-18T12:28:09.070Z,-1.18
2022-12-18T12:30:45.748Z,-1.72
2022-12-18T12:33:28.684Z,-1.89
2022-12-18T12:36:05.750Z,-1.90
2022-12-18T12:38:38.850Z,-2.03
2022-12-18T12:41:30.660Z,-1.88
2022-12-18T12:44:02.005Z,-1.79
2022-12-18T12:46:33.198Z,-1.73
2022-12-18T12:49:04.873Z,-1.71
2022-12-18T12:51:38.629Z,-2.09
2022-12-18T12:54:15.083Z,-1.72
2022-12-18T12:56:51.930Z,-2.57
2022-12-18T12:59:27.228Z,-1.99
2022-12-18T13:02:04.748Z,-1.96
2022-12-18T13:04:41.987Z,-1.81
2022-12-18T13:07:18.274Z,-1.49
2022-12-18T13:10:17.661Z,-1.28
2022-12-18T13:12:59.562Z,-0.99
2022-12-18T13:15:46.784Z,-1.67
2022-12-18T13:18:21.770Z,-1.06
2022-12-18T13:20:55.411Z,-1.01
2022-12-18T13:23:46.127Z,-1.33
2022-12-18T13:26:35.191Z,-1.39
2022-12-18T13:29:05.904Z,-1.20
2022-12-18T13:32:12.922Z,-1.74
2022-12-18T13:34:43.640Z,-1.94
2022-12-18T13:37:43.181Z,-1.84
2022-12-18T13:40:56.363Z,-1.51
2022-12-18T13:43:33.171Z,-1.61
2022-12-18T13:46:17.124Z,-1.64
2022-12-18T13:48:52.961Z,-1.88
2022-12-18T13:51:22.545Z,-1.75
2022-12-18T13:53:53.127Z,-2.08
2022-12-18T13:56:25.519Z,-1.96
2022-12-18T13:59:16.160Z,-1.93
2022-12-18T14:01:49.719Z,-2.01
2022-12-18T14:04:24.434Z,-2.02
2022-12-18T14:06:55.287Z,-2.12
2022-12-18T14:09:27.315Z,-2.21
2022-12-18T14:12:18.341Z,-2.56
2022-12-18T14:14:50.311Z,-2.91
2022-12-18T14:17:21.904Z,-2.51
2022-12-18T14:19:52.301Z,-3.05
2022-12-18T14:22:22.132Z,-2.83
2022-12-18T14:25:10.799Z,-2.84
2022-12-18T14:27:43.756Z,-3.02
2022-12-18T14:30:26.368Z,-3.26
2022-12-18T14:33:02.620Z,-3.18
2022-12-18T14:35:30.720Z,-3.16
2022-12-18T14:38:12.837Z,-3.80
2022-12-18T14:40:40.658Z,-3.46
2022-12-18T14:43:11.940Z,-3.53
2022-12-18T14:45:44.445Z,-3.58
2022-12-18T14:48:22.813Z,-4.12
2022-12-18T14:51:00.621Z,-4.05
2022-12-18T14:53:39.818Z,-4.06
2022-12-18T14:56:19.649Z,-4.10
2022-12-18T14:58:50.106Z,-3.99
2022-12-18T15:01:38.616Z,-3.94
2022-12-18T15:04:25.435Z,-4.11
2022-12-18T15:07:05.531Z,-4.12
2022-12-18T15:09:33.319Z,-4.17
2022-12-18T15:12:02.948Z,-4.14
2022-12-18T15:14:40.567Z,-4.49
2022-12-18T15:17:20.045Z,-4.35
2022-12-18T15:19:49.125Z,-4.29
2022-12-18T15:22:23.160Z,-4.62
2022-12-18T15:24:52.185Z,-4.37
2022-12-18T15:27:26.037Z,-4.35
2022-12-18T15:30:23.584Z,-4.38
2022-12-18T15:32:55.578Z,-4.25
2022-12-18T15:35:25.177Z,-4.37
2022-12-18T15:37:53.801Z,-4.34
2022-12-18T15:40:23.616Z,-4.28
2022-12-18T15:43:12.860Z,-4.36
2022-12-18T15:45:40.836Z,-4.36
2022-12-18T15:48:21.995Z,-4.26
2022-12-18T15:50:50.457Z,-4.33
2022-12-18T15:53:18.500Z,-4.37
2022-12-18T15:56:03.861Z,-4.31
2022-12-18T15:58:31.662Z,-4.57
2022-12-18T16:01:01.829Z,-4.38
2022-12-18T16:03:31.268Z,-4.50
2022-12-18T16:06:02.907Z,-4.18
2022-12-18T16:08:32.172Z,-4.27
2022-12-18T16:11:00.397Z,-4.20
2022-12-18T16:13:28.239Z,-4.34
2022-12-18T16:15:56.055Z,-4.20
2022-12-18T16:18:24.121Z,-4.18
2022-12-18T16:20:53.349Z,-4.18
2022-12-18T16:23:21.189Z,-4.07
2022-12-18T16:25:48.990Z,-3.94
2022-12-18T16:28:16.771Z,-3.97
2022-12-18T16:30:45.817Z,-3.82
2022-12-18T16:33:13.696Z,-3.84
2022-12-18T16:35:41.766Z,-3.74
2022-12-18T16:38:11.988Z,-3.69
2022-12-18T16:41:01.884Z,-3.68
2022-12-18T16:43:29.631Z,-3.59
2022-12-18T16:45:59.560Z,-3.68
2022-12-18T16:48:27.435Z,-4.29
2022-12-18T16:51:02.330Z,-3.50
2022-12-18T16:53:31.767Z,-3.49
2022-12-18T16:56:01.022Z,-3.79
2022-12-18T16:58:28.791Z,-3.52
2022-12-18T17:00:56.597Z,-3.61
2022-12-18T17:03:24.512Z,-3.75
2022-12-18T17:05:53.291Z,-3.68
2022-12-18T17:08:21.464Z,-3.76
2022-12-18T17:10:50.597Z,-3.87
2022-12-18T17:13:21.423Z,-3.78
2022-12-18T17:15:53.535Z,-3.88
2022-12-18T17:18:21.734Z,-3.81
2022-12-18T17:20:49.457Z,-3.83
2022-12-18T17:23:17.202Z,-3.84
2022-12-18T17:25:44.960Z,-3.87
2022-12-18T17:28:14.143Z,-4.00
2022-12-18T17:30:41.919Z,-3.98
2022-12-18T17:33:09.727Z,-3.90
2022-12-18T17:35:38.087Z,-3.89
2022-12-18T17:38:05.889Z,-3.84
2022-12-18T17:40:34.673Z,-3.80
2022-12-18T17:43:02.773Z,-3.63
2022-12-18T17:45:31.920Z,-3.49
2022-12-18T17:48:00.055Z,-3.79
2022-12-18T17:50:27.940Z,-3.52
2022-12-18T17:52:56.861Z,-3.32
2022-12-18T17:55:24.642Z,-3.41
2022-12-18T17:57:52.470Z,-3.49
2022-12-18T18:00:21.070Z,-3.42
2022-12-18T18:02:50.374Z,-3.64
2022-12-18T18:05:18.281Z,-3.54
2022-12-18T18:07:46.071Z,-3.58
2022-12-18T18:10:14.048Z,-3.64
2022-12-18T18:12:59.233Z,-3.70
2022-12-18T18:15:27.075Z,-3.92
2022-12-18T18:17:56.238Z,-3.87
2022-12-18T18:20:24.031Z,-3.78
2022-12-18T18:22:52.060Z,-3.88
2022-12-18T18:25:19.903Z,-3.85
2022-12-18T18:27:47.814Z,-3.97
2022-12-18T18:30:16.167Z,-3.92
2022-12-18T18:32:43.974Z,-3.80
2022-12-18T18:35:37.517Z,-3.83
2022-12-18T18:38:04.235Z,-3.64
2022-12-18T18:40:32.038Z,-4.27
2022-12-18T18:42:59.929Z,-3.82
2022-12-18T18:45:27.746Z,-3.85
2022-12-18T18:47:55.833Z,-4.60
2022-12-18T18:50:25.029Z,-3.75
2022-12-18T18:52:52.782Z,-3.83
2022-12-18T18:55:24.151Z,-3.90
2022-12-18T18:57:53.496Z,-3.98
2022-12-18T19:00:21.598Z,-4.19
2022-12-18T19:02:49.895Z,-3.98
2022-12-18T19:05:17.825Z,-3.73
2022-12-18T19:07:47.314Z,-3.56
2022-12-18T19:10:15.156Z,-3.64
2022-12-18T19:13:00.299Z,-3.65
2022-12-18T19:15:28.107Z,-3.62
2022-12-18T19:17:55.983Z,-3.53
2022-12-18T19:20:23.941Z,-3.63
2022-12-18T19:22:55.501Z,-3.40
2022-12-18T19:25:29.745Z,-3.59
2022-12-18T19:28:10.003Z,-3.49
2022-12-18T19:30:48.533Z,-3.65
2022-12-18T19:33:44.473Z,-3.54
2022-12-18T19:36:11.912Z,-3.40
2022-12-18T19:38:42.729Z,-3.39
2022-12-18T19:41:13.397Z,-3.38
2022-12-18T19:43:41.754Z,-3.34
2022-12-18T19:46:13.035Z,-3.36
2022-12-18T19:48:41.793Z,-3.77
2022-12-18T19:51:12.324Z,-3.35
2022-12-18T19:53:41.703Z,-3.43
2022-12-18T19:56:11.355Z,-3.61
2022-12-18T19:58:39.701Z,-3.33
2022-12-18T20:01:08.979Z,-3.29
2022-12-18T20:03:38.847Z,-3.28
2022-12-18T20:06:12.064Z,-3.23
2022-12-18T20:08:41.482Z,-3.21
2022-12-18T20:11:09.769Z,-3.22
2022-12-18T20:13:38.418Z,-3.13
2022-12-18T20:16:06.871Z,-3.16
2022-12-18T20:18:34.759Z,-3.29
2022-12-18T20:21:03.434Z,-3.12
2022-12-18T20:23:32.192Z,-3.09
2022-12-18T20:26:03.084Z,-3.17
2022-12-18T20:28:33.002Z,-3.18
2022-12-18T20:31:01.940Z,-2.99
2022-12-18T20:33:30.508Z,-3.10
2022-12-18T20:36:03.412Z,-2.97
2022-12-18T20:38:31.870Z,-3.07
2022-12-18T20:41:02.591Z,-2.99
2022-12-18T20:43:30.559Z,-3.14
2022-12-18T20:46:03.094Z,-3.06
2022-12-18T20:48:31.551Z,-3.09
2022-12-18T20:51:02.130Z,-3.00
2022-12-18T20:53:32.133Z,-3.07
2022-12-18T20:56:00.209Z,-3.03
2022-12-18T20:58:29.441Z,-3.03
2022-12-18T21:01:05.013Z,-3.08
2022-12-18T21:03:32.891Z,-2.96
2022-12-18T21:06:00.826Z,-3.02
2022-12-18T21:08:28.613Z,-2.97
2022-12-18T21:10:56.692Z,-2.98
2022-12-18T21:13:24.999Z,-2.92
2022-12-18T21:15:56.195Z,-3.06
2022-12-18T21:18:23.957Z,-3.09
2022-12-18T21:20:51.800Z,-2.97
2022-12-18T21:23:19.685Z,-2.97
2022-12-18T21:25:49.458Z,-2.99
2022-12-18T21:28:23.559Z,-3.02
2022-12-18T21:30:51.531Z,-2.94
2022-12-18T21:33:20.744Z,-3.23
2022-12-18T21:35:48.575Z,-2.94
2022-12-18T21:38:16.314Z,-2.89
2022-12-18T21:40:44.167Z,-2.83
2022-12-18T21:43:29.391Z,-2.83
2022-12-18T21:45:57.244Z,-2.83
2022-12-18T21:48:28.263Z,-2.86
2022-12-18T21:50:56.004Z,-2.84
2022-12-18T21:53:23.780Z,-2.87
2022-12-18T21:55:59.127Z,-2.74
2022-12-18T21:58:27.698Z,-2.78
2022-12-18T22:00:55.553Z,-2.82
2022-12-18T22:03:23.525Z,-2.78
2022-12-18T22:06:07.061Z,-2.81
2022-12-18T22:08:42.237Z,-2.76
2022-12-18T22:11:14.176Z,-2.96
2022-12-18T22:13:43.535Z,-2.76
2022-12-18T22:16:11.375Z,-2.77
2022-12-18T22:18:39.192Z,-2.74
2022-12-18T22:21:08.424Z,-2.81
2022-12-18T22:23:36.215Z,-2.73
2022-12-18T22:26:04.245Z,-2.77
2022-12-18T22:28:49.743Z,-2.83
2022-12-18T22:31:17.579Z,-2.73
2022-12-18T22:33:45.396Z,-2.84
2022-12-18T22:36:15.737Z,-2.87
2022-12-18T22:38:47.623Z,-2.76
2022-12-18T22:41:15.365Z,-2.78
2022-12-18T22:43:43.136Z,-2.85
2022-12-18T22:46:13.698Z,-2.81
2022-12-18T22:48:41.538Z,-2.68
2022-12-18T22:51:15.144Z,-2.75
2022-12-18T22:53:45.012Z,-2.70
2022-12-18T22:56:21.147Z,-2.79
2022-12-18T22:58:50.099Z,-2.76
2022-12-18T23:01:22.294Z,-2.68
2022-12-18T23:03:50.948Z,-2.62
2022-12-18T23:06:19.585Z,-2.87
2022-12-18T23:08:54.381Z,-2.77
2022-12-18T23:11:23.714Z,-2.84
2022-12-18T23:13:51.516Z,-2.81
2022-12-18T23:16:23.754Z,-2.74
2022-12-18T23:18:55.143Z,-2.77
2022-12-18T23:21:24.074Z,-2.77
2022-12-18T23:23:53.423Z,-2.98
2022-12-18T23:26:22.939Z,-2.83
2022-12-18T23:28:52.334Z,-2.81
2022-12-18T23:31:21.836Z,-2.82
2022-12-18T23:33:50.383Z,-2.97
2022-12-18T23:36:19.767Z,-2.85
2022-12-18T23:38:50.315Z,-3.18
2022-12-18T23:41:21.004Z,-2.93
2022-12-18T23:43:48.813Z,-2.92
2022-12-18T23:46:19.591Z,-2.91
2022-12-18T23:48:47.572Z,-2.97
2022-12-18T23:51:17.053Z,-2.91
2022-12-18T23:53:45.789Z,-2.93
2022-12-18T23:56:14.620Z,-2.93
2022-12-18T23:58:46.199Z,-2.91
